createdAt,value
2023-12-23T00:00:40.688Z,4.8
2023-12-23T00:01:44.292Z,4.8
2023-12-23T00:02:46.715Z,4.8
2023-12-23T00:03:48.925Z,4.8
2023-12-23T00:04:51.372Z,4.9
2023-12-23T00:05:53.456Z,4.9
2023-12-23T00:06:56.063Z,4.9
2023-12-23T00:07:57.711Z,4.9
2023-12-23T00:08:59.785Z,4.9
2023-12-23T00:10:02.186Z,4.9
2023-12-23T00:11:05.088Z,4.9
2023-12-23T00:12:08.299Z,4.9
2023-12-23T00:13:10.473Z,4.9
2023-12-23T00:14:12.841Z,4.9
2023-12-23T00:15:16.397Z,4.9
2023-12-23T00:16:18.521Z,4.9
2023-12-23T00:17:22.616Z,4.9
2023-12-23T00:18:26.232Z,4.9
2023-12-23T00:19:30.282Z,4.9
2023-12-23T00:20:33.392Z,4.9
2023-12-23T00:21:36.693Z,5
2023-12-23T00:22:38.998Z,5
2023-12-23T00:23:41.452Z,5
2023-12-23T00:24:43.705Z,5
2023-12-23T00:25:46.494Z,5
2023-12-23T00:26:49.036Z,5.1
2023-12-23T00:27:52.225Z,5.1
2023-12-23T00:28:55.547Z,5.1
2023-12-23T00:29:58.070Z,5.1
2023-12-23T00:31:00.115Z,5.1
2023-12-23T00:32:02.209Z,5.1
2023-12-23T00:33:05.100Z,5.1
2023-12-23T00:34:07.974Z,5.2
2023-12-23T00:35:10.077Z,5.2
2023-12-23T00:36:12.907Z,5.2
2023-12-23T00:37:14.872Z,5.2
2023-12-23T00:38:18.464Z,5.2
2023-12-23T00:39:20.880Z,5.2
2023-12-23T00:40:23.122Z,5.2
2023-12-23T00:41:25.092Z,5.2
2023-12-23T00:42:27.579Z,5.2
2023-12-23T00:43:30.536Z,5.2
2023-12-23T00:44:34.869Z,5.2
2023-12-23T00:45:36.905Z,5.3
2023-12-23T00:46:39.265Z,5.3
2023-12-23T00:47:42.049Z,5.3
2023-12-23T00:48:44.355Z,5.3
2023-12-23T00:49:47.223Z,5.3
2023-12-23T00:50:49.342Z,5.3
2023-12-23T00:51:50.933Z,5.3
2023-12-23T00:52:52.930Z,5.3
2023-12-23T00:53:55.636Z,5.3
2023-12-23T00:54:57.207Z,5.3
2023-12-23T00:55:59.289Z,5.3
2023-12-23T00:57:01.760Z,5.3
2023-12-23T00:58:04.156Z,5.3
2023-12-23T00:59:06.420Z,5.3
2023-12-23T01:00:08.838Z,5.3
2023-12-23T01:01:10.695Z,5.3
2023-12-23T01:02:13.776Z,5.3
2023-12-23T01:03:16.760Z,5.3
2023-12-23T01:04:18.545Z,5.3
2023-12-23T01:05:20.562Z,5.3
2023-12-23T01:06:23.722Z,5.3
2023-12-23T01:07:26.617Z,5.3
2023-12-23T01:08:28.718Z,5.3
2023-12-23T01:09:31.262Z,5.3
2023-12-23T01:10:34.104Z,5.3
2023-12-23T01:11:38.877Z,5.3
2023-12-23T01:12:41.444Z,5.3
2023-12-23T01:13:45.394Z,5.3
2023-12-23T01:14:48.361Z,5.3
2023-12-23T01:15:52.570Z,5.3
2023-12-23T01:16:55.375Z,5.3
2023-12-23T01:17:58.033Z,5.3
2023-12-23T01:19:01.298Z,5.3
2023-12-23T01:20:03.811Z,5.3
2023-12-23T01:21:06.258Z,5.3
2023-12-23T01:22:08.304Z,5.3
2023-12-23T01:23:10.175Z,5.3
2023-12-23T01:24:12.710Z,5.3
2023-12-23T01:25:14.623Z,5.3
2023-12-23T01:26:16.835Z,5.3
2023-12-23T01:27:19.486Z,5.3
2023-12-23T01:28:21.678Z,5.3
2023-12-23T01:29:24.062Z,5.3
2023-12-23T01:30:26.363Z,5.3
2023-12-23T01:31:28.337Z,5.3
2023-12-23T01:32:30.644Z,5.3
2023-12-23T01:33:33.691Z,5.3
2023-12-23T01:34:36.518Z,5.3
2023-12-23T01:35:38.636Z,5.3
2023-12-23T01:36:40.956Z,5.3
2023-12-23T01:37:42.837Z,5.3
2023-12-23T01:38:45.092Z,5.3
2023-12-23T01:41:22.797Z,5.3
2023-12-23T01:42:25.446Z,5.3
2023-12-23T01:43:27.726Z,5.3
2023-12-23T01:44:29.882Z,5.3
2023-12-23T01:45:36.361Z,5.3
2023-12-23T01:46:38.897Z,5.3
2023-12-23T01:47:42.967Z,5.3
2023-12-23T01:48:45.271Z,5.3
2023-12-23T01:49:48.819Z,5.3
2023-12-23T01:50:51.444Z,5.3
2023-12-23T01:51:54.611Z,5.3
2023-12-23T01:52:56.805Z,5.3
2023-12-23T01:53:58.906Z,5.3
2023-12-23T01:55:00.533Z,5.3
2023-12-23T01:56:02.676Z,5.3
2023-12-23T01:57:05.880Z,5.3
2023-12-23T01:58:07.999Z,5.3
2023-12-23T01:59:11.937Z,5.3
2023-12-23T02:00:14.523Z,5.3
2023-12-23T02:01:16.643Z,5.3
2023-12-23T02:02:19.651Z,5.3
2023-12-23T02:03:21.998Z,5.3
2023-12-23T02:04:24.100Z,5.3
2023-12-23T02:05:26.274Z,5.3
2023-12-23T02:06:28.529Z,5.3
2023-12-23T02:07:30.608Z,5.3
2023-12-23T02:08:32.705Z,5.3
2023-12-23T02:09:34.736Z,5.3
2023-12-23T02:10:36.955Z,5.3
2023-12-23T02:11:39.170Z,5.3
2023-12-23T02:12:40.818Z,5.3
2023-12-23T02:13:42.770Z,5.3
2023-12-23T02:14:45.191Z,5.3
2023-12-23T02:15:47.349Z,5.3
2023-12-23T02:16:50.091Z,5.3
2023-12-23T02:17:52.411Z,5.3
2023-12-23T02:18:55.183Z,5.3
2023-12-23T02:19:57.529Z,5.3
2023-12-23T02:21:00.360Z,5.3
2023-12-23T02:22:02.219Z,5.3
2023-12-23T02:23:04.148Z,5.3
2023-12-23T02:24:06.400Z,5.3
2023-12-23T02:25:08.677Z,5.3
2023-12-23T02:26:12.600Z,5.3
2023-12-23T02:27:16.901Z,5.3
2023-12-23T02:28:18.930Z,5.3
2023-12-23T02:29:21.062Z,5.3
2023-12-23T02:30:23.623Z,5.3
2023-12-23T02:31:26.232Z,5.3
2023-12-23T02:32:28.384Z,5.3
2023-12-23T02:33:31.372Z,5.3
2023-12-23T02:34:33.863Z,5.3
2023-12-23T02:35:35.976Z,5.3
2023-12-23T02:36:37.965Z,5.3
2023-12-23T02:37:39.637Z,5.3
2023-12-23T02:38:41.748Z,5.3
2023-12-23T02:39:43.830Z,5.3
2023-12-23T02:40:45.891Z,5.3
2023-12-23T02:41:48.262Z,5.3
2023-12-23T02:42:51.369Z,5.3
2023-12-23T02:43:55.379Z,5.3
2023-12-23T02:44:58.193Z,5.3
2023-12-23T02:46:00.729Z,5.3
2023-12-23T02:47:03.464Z,5.3
2023-12-23T02:48:06.295Z,5.3
2023-12-23T02:49:09.578Z,5.3
2023-12-23T02:50:13.156Z,5.3
2023-12-23T02:51:15.536Z,5.3
2023-12-23T02:52:17.601Z,5.3
2023-12-23T02:53:20.134Z,5.3
2023-12-23T02:54:23.472Z,5.3
2023-12-23T02:55:25.591Z,5.3
2023-12-23T02:56:32.564Z,5.3
2023-12-23T02:57:34.713Z,5.3
2023-12-23T02:58:36.984Z,5.3
2023-12-23T02:59:40.964Z,5.3
2023-12-23T03:00:42.703Z,5.3
2023-12-23T03:01:45.108Z,5.3
2023-12-23T03:02:48.297Z,5.2
2023-12-23T03:03:52.097Z,5.2
2023-12-23T03:04:54.232Z,5.2
2023-12-23T03:05:56.646Z,5.2
2023-12-23T03:06:59.731Z,5.2
2023-12-23T03:08:03.834Z,5.2
2023-12-23T03:09:06.759Z,5.2
2023-12-23T03:10:08.650Z,5.2
2023-12-23T03:11:10.855Z,5.2
2023-12-23T03:12:12.954Z,5.2
2023-12-23T03:13:15.267Z,5.2
2023-12-23T03:14:17.411Z,5.2
2023-12-23T03:15:19.934Z,5.2
2023-12-23T03:16:21.714Z,5.2
2023-12-23T03:17:24.043Z,5.2
2023-12-23T03:18:26.745Z,5.2
2023-12-23T03:19:29.206Z,5.2
2023-12-23T03:20:31.684Z,5.1
2023-12-23T03:21:33.590Z,5.1
2023-12-23T03:22:35.812Z,5.1
2023-12-23T03:23:37.843Z,5.1
2023-12-23T03:24:39.993Z,5.1
2023-12-23T03:25:42.430Z,5.1
2023-12-23T03:26:45.369Z,5.1
2023-12-23T03:27:48.720Z,5.1
2023-12-23T03:28:50.369Z,5.1
2023-12-23T03:29:52.813Z,5.1
2023-12-23T03:30:54.531Z,5.1
2023-12-23T03:31:57.165Z,5.1
2023-12-23T03:32:59.418Z,5.1
2023-12-23T03:34:03.182Z,5.1
2023-12-23T03:35:06.729Z,5.1
2023-12-23T03:36:10.785Z,5.1
2023-12-23T03:37:12.802Z,5.1
2023-12-23T03:38:15.682Z,5.1
2023-12-23T03:39:18.038Z,5.1
2023-12-23T03:40:19.942Z,5.1
2023-12-23T03:41:22.259Z,5.1
2023-12-23T03:42:24.615Z,5.1
2023-12-23T03:43:32.955Z,5.1
2023-12-23T03:44:34.755Z,5.1
2023-12-23T03:45:36.597Z,5.1
2023-12-23T03:46:39.111Z,5.1
2023-12-23T03:47:41.348Z,5.1
2023-12-23T03:48:44.410Z,5.1
2023-12-23T03:49:46.810Z,5.1
2023-12-23T03:50:49.409Z,5.1
2023-12-23T03:51:51.237Z,5.1
2023-12-23T03:52:53.809Z,5.1
2023-12-23T03:53:56.637Z,5.1
2023-12-23T03:54:58.676Z,5.1
2023-12-23T03:56:00.869Z,5.1
2023-12-23T03:57:03.967Z,5.1
2023-12-23T03:58:06.653Z,5.1
2023-12-23T03:59:09.520Z,5.1
2023-12-23T04:00:11.831Z,5.1
2023-12-23T04:01:13.784Z,5.1
2023-12-23T04:02:16.092Z,5.1
2023-12-23T04:03:18.958Z,5.1
2023-12-23T04:04:21.148Z,5.1
2023-12-23T04:05:24.005Z,5.1
2023-12-23T04:06:26.550Z,5.1
2023-12-23T04:07:29.461Z,5.2
2023-12-23T04:08:31.348Z,5.2
2023-12-23T04:09:32.967Z,5.2
2023-12-23T04:10:34.932Z,5.2
2023-12-23T04:11:36.527Z,5.2
2023-12-23T04:12:38.105Z,5.2
2023-12-23T04:13:40.849Z,5.2
2023-12-23T04:14:43.921Z,5.2
2023-12-23T04:15:46.020Z,5.2
2023-12-23T04:16:48.056Z,5.2
2023-12-23T04:17:50.111Z,5.2
2023-12-23T04:18:54.045Z,5.2
2023-12-23T04:19:56.304Z,5.2
2023-12-23T04:20:58.932Z,5.2
2023-12-23T04:22:00.956Z,5.2
2023-12-23T04:23:03.330Z,5.2
2023-12-23T04:24:07.300Z,5.2
2023-12-23T04:25:09.463Z,5.2
2023-12-23T04:26:11.588Z,5.2
2023-12-23T04:27:14.104Z,5.2
2023-12-23T04:28:16.286Z,5.2
2023-12-23T04:29:18.252Z,5.2
2023-12-23T04:30:21.490Z,5.3
2023-12-23T04:31:24.451Z,5.3
2023-12-23T04:32:27.578Z,5.3
2023-12-23T04:33:30.594Z,5.3
2023-12-23T04:34:33.402Z,5.2
2023-12-23T04:35:35.811Z,5.2
2023-12-23T04:36:37.869Z,5.2
2023-12-23T04:37:40.831Z,5.2
2023-12-23T04:38:43.112Z,5.2
2023-12-23T04:39:45.035Z,5.2
2023-12-23T04:40:47.039Z,5.2
2023-12-23T04:41:49.570Z,5.2
2023-12-23T04:42:53.392Z,5.2
2023-12-23T04:43:55.445Z,5.2
2023-12-23T04:45:00.517Z,5.2
2023-12-23T04:46:02.712Z,5.2
2023-12-23T04:47:05.455Z,5.2
2023-12-23T04:48:07.886Z,5.2
2023-12-23T04:49:10.735Z,5.2
2023-12-23T04:50:12.638Z,5.2
2023-12-23T04:51:15.701Z,5.2
2023-12-23T04:52:17.883Z,5.2
2023-12-23T04:53:20.656Z,5.2
2023-12-23T04:54:22.916Z,5.1
2023-12-23T04:55:25.222Z,5.1
2023-12-23T04:56:29.665Z,5.1
2023-12-23T04:57:31.507Z,5.1
2023-12-23T04:58:33.675Z,5.1
2023-12-23T04:59:35.404Z,5.1
2023-12-23T05:00:37.263Z,5.1
2023-12-23T05:01:39.174Z,5.1
2023-12-23T05:02:42.235Z,5.1
2023-12-23T05:03:44.193Z,5.1
2023-12-23T05:04:46.439Z,5
2023-12-23T05:05:50.474Z,5
2023-12-23T05:06:54.433Z,5
2023-12-23T05:07:56.710Z,5
2023-12-23T05:09:00.646Z,5
2023-12-23T05:10:02.446Z,5
2023-12-23T05:11:04.428Z,5
2023-12-23T05:12:06.695Z,5
2023-12-23T05:13:09.495Z,5
2023-12-23T05:14:11.374Z,5
2023-12-23T05:15:13.838Z,5
2023-12-23T05:16:15.908Z,4.9
2023-12-23T05:17:18.622Z,4.9
2023-12-23T05:18:23.384Z,4.9
2023-12-23T05:19:26.126Z,4.9
2023-12-23T05:20:31.586Z,4.9
2023-12-23T05:21:33.667Z,4.9
2023-12-23T05:22:35.533Z,4.9
2023-12-23T05:23:37.576Z,4.9
2023-12-23T05:24:39.534Z,4.9
2023-12-23T05:25:41.382Z,4.9
2023-12-23T05:26:43.928Z,4.9
2023-12-23T05:27:46.277Z,4.9
2023-12-23T05:28:48.276Z,4.9
2023-12-23T05:29:50.995Z,4.8
2023-12-23T05:30:53.696Z,4.8
2023-12-23T05:31:56.354Z,4.8
2023-12-23T05:32:58.681Z,4.8
2023-12-23T05:34:01.553Z,4.8
2023-12-23T05:35:04.849Z,4.8
2023-12-23T05:36:07.512Z,4.8
2023-12-23T05:37:09.610Z,4.8
2023-12-23T05:38:11.880Z,4.8
2023-12-23T05:39:16.150Z,4.8
2023-12-23T05:40:18.994Z,4.7
2023-12-23T05:41:21.612Z,4.7
2023-12-23T05:42:24.395Z,4.7
2023-12-23T05:43:26.113Z,4.7
2023-12-23T05:44:28.429Z,4.7
2023-12-23T05:45:31.315Z,4.7
2023-12-23T05:46:33.341Z,4.7
2023-12-23T05:47:35.435Z,4.7
2023-12-23T05:48:38.669Z,4.7
2023-12-23T05:49:41.929Z,4.7
2023-12-23T05:50:45.834Z,4.7
2023-12-23T05:51:47.785Z,4.7
2023-12-23T05:52:50.028Z,4.7
2023-12-23T05:53:53.929Z,4.6
2023-12-23T05:54:56.198Z,4.6
2023-12-23T05:55:58.299Z,4.6
2023-12-23T05:57:00.633Z,4.6
2023-12-23T05:58:03.790Z,4.6
2023-12-23T05:59:05.846Z,4.6
2023-12-23T06:00:13.381Z,4.6
2023-12-23T06:01:15.625Z,4.6
2023-12-23T06:02:17.996Z,4.6
2023-12-23T06:03:20.614Z,4.6
2023-12-23T06:04:25.386Z,4.5
2023-12-23T06:05:27.650Z,4.5
2023-12-23T06:06:30.583Z,4.5
2023-12-23T06:07:33.232Z,4.5
2023-12-23T06:08:34.845Z,4.5
2023-12-23T06:09:36.743Z,4.5
2023-12-23T06:10:54.863Z,4.5
2023-12-23T06:12:06.782Z,4.5
2023-12-23T06:13:08.739Z,4.5
2023-12-23T06:14:11.008Z,4.5
2023-12-23T06:15:13.186Z,4.5
2023-12-23T06:16:15.279Z,4.5
2023-12-23T06:17:17.265Z,4.5
2023-12-23T06:18:20.870Z,4.5
2023-12-23T06:19:24.402Z,4.5
2023-12-23T06:20:27.657Z,4.5
2023-12-23T06:21:30.990Z,4.5
2023-12-23T06:22:34.368Z,4.4
2023-12-23T06:23:36.254Z,4.4
2023-12-23T06:24:38.085Z,4.4
2023-12-23T06:25:40.310Z,4.4
2023-12-23T06:26:46.430Z,4.4
2023-12-23T06:27:48.525Z,4.4
2023-12-23T06:28:51.164Z,4.4
2023-12-23T06:29:53.171Z,4.4
2023-12-23T06:30:56.484Z,4.4
2023-12-23T06:32:01.398Z,4.4
2023-12-23T06:33:04.504Z,4.4
2023-12-23T06:34:07.729Z,4.5
2023-12-23T06:35:11.633Z,4.5
2023-12-23T06:36:14.420Z,4.5
2023-12-23T06:37:16.457Z,4.5
2023-12-23T06:38:18.701Z,4.5
2023-12-23T06:39:21.576Z,4.5
2023-12-23T06:40:23.596Z,4.5
2023-12-23T06:41:26.029Z,4.5
2023-12-23T06:42:28.448Z,4.5
2023-12-23T06:43:51.836Z,4.5
2023-12-23T06:44:56.527Z,4.5
2023-12-23T06:45:58.630Z,4.5
2023-12-23T06:47:00.461Z,4.5
2023-12-23T06:48:02.840Z,4.5
2023-12-23T06:49:06.082Z,4.5
2023-12-23T06:50:09.331Z,4.5
2023-12-23T06:51:11.990Z,4.5
2023-12-23T06:52:13.847Z,4.5
2023-12-23T06:53:15.486Z,4.5
2023-12-23T06:54:17.439Z,4.5
2023-12-23T06:55:19.048Z,4.5
2023-12-23T06:56:20.925Z,4.5
2023-12-23T06:57:23.266Z,4.5
2023-12-23T06:58:25.282Z,4.5
2023-12-23T06:59:27.061Z,4.6
2023-12-23T07:00:29.262Z,4.6
2023-12-23T07:01:30.960Z,4.6
2023-12-23T07:02:32.425Z,4.6
2023-12-23T07:03:34.054Z,4.6
2023-12-23T07:04:36.389Z,4.6
2023-12-23T07:05:38.414Z,4.7
2023-12-23T07:06:40.528Z,4.7
2023-12-23T07:07:42.551Z,4.7
2023-12-23T07:08:45.098Z,4.8
2023-12-23T07:09:58.588Z,4.8
2023-12-23T07:11:09.832Z,4.8
2023-12-23T07:12:12.478Z,4.9
2023-12-23T07:13:16.035Z,4.9
2023-12-23T07:14:18.136Z,4.9
2023-12-23T07:15:20.620Z,5
2023-12-23T07:16:22.467Z,5
2023-12-23T07:17:41.305Z,5.1
2023-12-23T07:18:46.052Z,5.1
2023-12-23T07:19:49.163Z,5.2
2023-12-23T07:20:51.766Z,5.2
2023-12-23T07:21:53.753Z,5.2
2023-12-23T07:22:56.079Z,5.3
2023-12-23T07:23:58.180Z,5.3
2023-12-23T07:24:59.827Z,5.3
2023-12-23T07:26:01.598Z,5.4
2023-12-23T07:27:03.937Z,5.4
2023-12-23T07:28:05.585Z,5.5
2023-12-23T07:29:07.916Z,5.5
2023-12-23T07:30:09.974Z,5.5
2023-12-23T07:31:11.932Z,5.6
2023-12-23T07:32:13.675Z,5.6
2023-12-23T07:33:16.163Z,5.7
2023-12-23T07:34:18.378Z,5.7
2023-12-23T07:35:22.616Z,5.7
2023-12-23T07:36:25.731Z,5.8
2023-12-23T07:37:29.032Z,5.8
2023-12-23T07:38:31.305Z,5.8
2023-12-23T07:39:33.584Z,5.9
2023-12-23T07:40:36.652Z,5.9
2023-12-23T07:41:38.308Z,5.9
2023-12-23T07:42:39.859Z,6
2023-12-23T07:43:41.440Z,6
2023-12-23T07:44:43.655Z,6
2023-12-23T07:45:45.869Z,6.1
2023-12-23T07:46:47.741Z,6.1
2023-12-23T07:47:49.477Z,6.1
2023-12-23T07:48:51.618Z,6.1
2023-12-23T07:49:53.931Z,6.2
2023-12-23T07:50:55.987Z,6.2
2023-12-23T07:51:58.293Z,6.2
2023-12-23T07:53:00.434Z,6.2
2023-12-23T07:54:03.076Z,6.2
2023-12-23T07:55:06.129Z,6.3
2023-12-23T07:56:07.784Z,6.3
2023-12-23T07:57:09.838Z,6.3
2023-12-23T07:58:11.886Z,6.3
2023-12-23T07:59:13.732Z,6.3
2023-12-23T08:00:16.156Z,6.4
2023-12-23T08:01:18.584Z,6.4
2023-12-23T08:02:21.685Z,6.4
2023-12-23T08:03:24.842Z,6.4
2023-12-23T08:04:27.227Z,6.4
2023-12-23T08:05:29.148Z,6.4
2023-12-23T08:06:32.021Z,6.4
2023-12-23T08:07:34.621Z,6.5
2023-12-23T08:08:36.120Z,6.5
2023-12-23T08:09:37.874Z,6.5
2023-12-23T08:10:40.651Z,6.5
2023-12-23T08:11:42.523Z,6.5
2023-12-23T08:12:44.388Z,6.5
2023-12-23T08:13:46.905Z,6.5
2023-12-23T08:14:51.707Z,6.6
2023-12-23T08:15:55.019Z,6.6
2023-12-23T08:16:57.154Z,6.6
2023-12-23T08:18:02.995Z,6.6
2023-12-23T08:19:07.233Z,6.6
2023-12-23T08:20:10.429Z,6.6
2023-12-23T08:21:13.538Z,6.6
2023-12-23T08:22:15.429Z,6.6
2023-12-23T08:23:17.495Z,6.6
2023-12-23T08:24:19.801Z,6.7
2023-12-23T08:25:22.116Z,6.7
2023-12-23T08:26:24.549Z,6.7
2023-12-23T08:27:27.021Z,6.7
2023-12-23T08:28:29.410Z,6.7
2023-12-23T08:29:34.087Z,6.7
2023-12-23T08:30:37.207Z,6.7
2023-12-23T08:31:39.451Z,6.7
2023-12-23T08:32:41.945Z,6.7
2023-12-23T08:33:44.798Z,6.7
2023-12-23T08:34:47.311Z,6.7
2023-12-23T08:35:50.273Z,6.7
2023-12-23T08:36:52.873Z,6.7
2023-12-23T08:37:55.414Z,6.7
2023-12-23T08:38:58.492Z,6.7
2023-12-23T08:40:00.513Z,6.8
2023-12-23T08:41:02.660Z,6.8
2023-12-23T08:42:05.263Z,6.8
2023-12-23T08:43:06.984Z,6.8
2023-12-23T08:44:08.992Z,6.8
2023-12-23T08:45:11.288Z,6.8
2023-12-23T08:46:13.391Z,6.8
2023-12-23T08:47:15.832Z,6.8
2023-12-23T08:48:18.672Z,6.8
2023-12-23T08:49:21.772Z,6.8
2023-12-23T08:50:24.451Z,6.8
2023-12-23T08:51:26.890Z,6.8
2023-12-23T08:52:28.764Z,6.8
2023-12-23T08:53:31.117Z,6.8
2023-12-23T08:54:33.135Z,6.8
2023-12-23T08:55:35.487Z,6.8
2023-12-23T08:56:38.092Z,6.8
2023-12-23T08:57:40.276Z,6.8
2023-12-23T08:58:42.038Z,6.8
2023-12-23T08:59:44.630Z,6.8
2023-12-23T09:00:46.646Z,6.9
2023-12-23T09:01:48.976Z,6.9
2023-12-23T09:02:52.138Z,6.9
2023-12-23T09:03:55.760Z,6.9
2023-12-23T09:04:59.674Z,6.9
2023-12-23T09:06:04.675Z,6.9
2023-12-23T09:07:09.028Z,6.9
2023-12-23T09:08:11.742Z,6.9
2023-12-23T09:09:15.107Z,6.9
2023-12-23T09:10:17.419Z,6.9
2023-12-23T09:11:21.987Z,6.9
2023-12-23T09:12:24.527Z,6.9
2023-12-23T09:13:26.031Z,6.9
2023-12-23T09:14:27.976Z,6.9
2023-12-23T09:15:30.036Z,6.9
2023-12-23T09:16:32.306Z,6.9
2023-12-23T09:17:35.501Z,7
2023-12-23T09:18:38.888Z,7
2023-12-23T09:19:42.112Z,7
2023-12-23T09:20:45.020Z,7
2023-12-23T09:21:46.901Z,7
2023-12-23T09:22:50.261Z,7
2023-12-23T09:23:52.672Z,7
2023-12-23T09:24:54.736Z,7
2023-12-23T09:25:56.816Z,7
2023-12-23T09:26:59.481Z,7
2023-12-23T09:28:01.837Z,7
2023-12-23T09:29:04.649Z,7
2023-12-23T09:30:07.429Z,7
2023-12-23T09:31:11.276Z,7
2023-12-23T09:32:13.079Z,7.1
2023-12-23T09:33:16.195Z,7.1
2023-12-23T09:34:19.302Z,7.1
2023-12-23T09:35:21.443Z,7.1
2023-12-23T09:36:23.447Z,7.1
2023-12-23T09:37:25.723Z,7.1
2023-12-23T09:38:28.071Z,7.1
2023-12-23T09:39:31.149Z,7.1
2023-12-23T09:40:33.829Z,7.1
2023-12-23T09:41:35.506Z,7.1
2023-12-23T09:42:37.463Z,7.1
2023-12-23T09:43:39.243Z,7.1
2023-12-23T09:44:41.568Z,7.1
2023-12-23T09:45:44.700Z,7.1
2023-12-23T09:46:47.215Z,7.1
2023-12-23T09:47:51.195Z,7.1
2023-12-23T09:48:56.183Z,7.2
2023-12-23T09:49:59.345Z,7.2
2023-12-23T09:51:03.538Z,7.2
2023-12-23T09:52:05.479Z,7.2
2023-12-23T09:53:07.710Z,7.2
2023-12-23T09:54:10.543Z,7.2
2023-12-23T09:55:13.174Z,7.2
2023-12-23T09:56:15.039Z,7.2
2023-12-23T09:57:17.921Z,7.2
2023-12-23T09:58:19.862Z,7.2
2023-12-23T09:59:22.449Z,7.2
2023-12-23T10:00:26.240Z,7.2
2023-12-23T10:01:28.390Z,7.2
2023-12-23T10:02:30.417Z,7.2
2023-12-23T10:03:32.658Z,7.2
2023-12-23T10:04:34.960Z,7.2
2023-12-23T10:05:37.804Z,7.3
2023-12-23T10:06:40.425Z,7.3
2023-12-23T10:07:44.412Z,7.3
2023-12-23T10:08:47.609Z,7.3
2023-12-23T10:09:49.649Z,7.3
2023-12-23T10:10:52.467Z,7.3
2023-12-23T10:11:54.906Z,7.3
2023-12-23T10:12:56.602Z,7.3
2023-12-23T10:13:58.516Z,7.3
2023-12-23T10:15:00.621Z,7.3
2023-12-23T10:16:02.713Z,7.3
2023-12-23T10:17:07.956Z,7.3
2023-12-23T10:18:10.210Z,7.3
2023-12-23T10:19:13.277Z,7.3
2023-12-23T10:20:16.121Z,7.3
2023-12-23T10:21:18.620Z,7.3
2023-12-23T10:22:21.516Z,7.3
2023-12-23T10:23:26.085Z,7.3
2023-12-23T10:24:29.142Z,7.3
2023-12-23T10:25:31.326Z,7.3
2023-12-23T10:26:33.212Z,7.3
2023-12-23T10:27:35.516Z,7.3
2023-12-23T10:28:38.075Z,7.3
2023-12-23T10:29:40.375Z,7.3
2023-12-23T10:30:42.843Z,7.3
2023-12-23T10:31:45.803Z,7.3
2023-12-23T10:32:48.549Z,7.3
2023-12-23T10:33:52.463Z,7.3
2023-12-23T10:34:54.833Z,7.3
2023-12-23T10:35:56.598Z,7.3
2023-12-23T10:36:58.309Z,7.3
2023-12-23T10:38:00.389Z,7.3
2023-12-23T10:39:02.424Z,7.3
2023-12-23T10:40:03.905Z,7.4
2023-12-23T10:41:05.515Z,7.4
2023-12-23T10:42:07.357Z,7.4
2023-12-23T10:43:08.893Z,7.4
2023-12-23T10:44:10.599Z,7.4
2023-12-23T10:45:12.727Z,7.4
2023-12-23T10:46:14.243Z,7.4
2023-12-23T10:47:15.909Z,7.4
2023-12-23T10:48:18.241Z,7.4
2023-12-23T10:49:20.934Z,7.4
2023-12-23T10:50:23.330Z,7.4
2023-12-23T10:51:26.569Z,7.4
2023-12-23T10:52:28.333Z,7.4
2023-12-23T10:53:30.143Z,7.4
2023-12-23T10:54:32.439Z,7.4
2023-12-23T10:55:33.943Z,7.4
2023-12-23T10:56:35.770Z,7.5
2023-12-23T10:57:37.814Z,7.5
2023-12-23T10:58:39.439Z,7.5
2023-12-23T10:59:40.941Z,7.5
2023-12-23T11:00:42.860Z,7.5
2023-12-23T11:01:44.766Z,7.5
2023-12-23T11:02:46.566Z,7.5
2023-12-23T11:03:48.515Z,7.5
2023-12-23T11:04:51.042Z,7.5
2023-12-23T11:05:53.201Z,7.5
2023-12-23T11:06:59.614Z,7.6
2023-12-23T11:08:16.436Z,7.6
2023-12-23T11:09:19.851Z,7.6
2023-12-23T11:10:21.481Z,7.6
2023-12-23T11:11:23.191Z,7.6
2023-12-23T11:12:25.299Z,7.6
2023-12-23T11:13:26.881Z,7.6
2023-12-23T11:14:28.884Z,7.7
2023-12-23T11:15:31.096Z,7.7
2023-12-23T11:16:32.626Z,7.7
2023-12-23T11:17:34.278Z,7.7
2023-12-23T11:18:36.961Z,7.7
2023-12-23T11:19:39.284Z,7.7
2023-12-23T11:20:40.782Z,7.7
2023-12-23T11:21:42.367Z,7.7
2023-12-23T11:22:43.988Z,7.7
2023-12-23T11:23:46.313Z,7.8
2023-12-23T11:24:48.869Z,7.8
2023-12-23T11:25:50.886Z,7.8
2023-12-23T11:26:52.729Z,7.8
2023-12-23T11:27:54.295Z,7.8
2023-12-23T11:28:55.964Z,7.8
2023-12-23T11:30:01.964Z,7.8
2023-12-23T11:31:04.856Z,7.8
2023-12-23T11:32:07.692Z,7.8
2023-12-23T11:33:09.893Z,7.8
2023-12-23T11:34:15.901Z,7.8
2023-12-23T11:35:18.703Z,7.8
2023-12-23T11:36:20.509Z,7.8
2023-12-23T11:37:21.954Z,7.8
2023-12-23T11:38:23.979Z,7.8
2023-12-23T11:39:26.144Z,7.8
2023-12-23T11:40:28.073Z,7.8
2023-12-23T11:41:29.999Z,7.8
2023-12-23T11:42:37.486Z,7.8
2023-12-23T11:43:38.990Z,7.8
2023-12-23T11:44:40.462Z,7.8
2023-12-23T11:45:41.948Z,7.9
2023-12-23T11:46:43.751Z,7.8
2023-12-23T11:47:45.997Z,7.8
2023-12-23T11:48:48.253Z,7.9
2023-12-23T11:49:50.208Z,7.9
2023-12-23T11:50:52.174Z,7.9
2023-12-23T11:51:53.757Z,7.9
2023-12-23T11:52:56.465Z,7.9
2023-12-23T11:54:00.757Z,7.9
2023-12-23T11:55:03.064Z,7.9
2023-12-23T11:56:05.031Z,7.9
2023-12-23T11:57:06.994Z,7.9
2023-12-23T11:58:08.455Z,7.9
2023-12-23T11:59:10.063Z,7.9
2023-12-23T12:00:12.230Z,7.9
2023-12-23T12:01:13.963Z,7.9
2023-12-23T12:02:16.233Z,7.9
2023-12-23T12:03:18.159Z,7.9
2023-12-23T12:04:19.821Z,7.9
2023-12-23T12:05:22.446Z,7.9
2023-12-23T12:06:25.156Z,7.9
2023-12-23T12:07:27.735Z,7.9
2023-12-23T12:08:29.711Z,7.9
2023-12-23T12:09:31.846Z,7.9
2023-12-23T12:10:34.944Z,7.9
2023-12-23T12:11:37.098Z,7.9
2023-12-23T12:12:39.235Z,7.9
2023-12-23T12:13:40.737Z,7.9
2023-12-23T12:14:42.569Z,7.9
2023-12-23T12:15:44.118Z,7.9
2023-12-23T12:16:45.803Z,7.9
2023-12-23T12:17:48.387Z,7.9
2023-12-23T12:18:51.790Z,7.9
2023-12-23T12:19:54.111Z,7.9
2023-12-23T12:20:56.041Z,7.8
2023-12-23T12:21:57.423Z,7.8
2023-12-23T12:22:59.149Z,7.8
2023-12-23T12:24:01.080Z,7.8
2023-12-23T12:25:02.747Z,7.8
2023-12-23T12:26:04.674Z,7.8
2023-12-23T12:27:06.790Z,7.8
2023-12-23T12:28:08.413Z,7.8
2023-12-23T12:29:10.246Z,7.8
2023-12-23T12:30:12.425Z,7.8
2023-12-23T12:31:15.086Z,7.8
2023-12-23T12:32:17.576Z,7.8
2023-12-23T12:33:19.866Z,7.8
2023-12-23T12:34:24.359Z,7.8
2023-12-23T12:35:27.222Z,7.8
2023-12-23T12:36:29.146Z,7.8
2023-12-23T12:37:30.669Z,7.8
2023-12-23T12:38:32.230Z,7.8
2023-12-23T12:39:35.385Z,7.8
2023-12-23T12:40:37.264Z,7.8
2023-12-23T12:41:39.122Z,7.8
2023-12-23T12:42:40.797Z,7.8
2023-12-23T12:43:42.395Z,7.8
2023-12-23T12:44:44.244Z,7.8
2023-12-23T12:45:46.202Z,7.8
2023-12-23T12:46:48.253Z,7.8
2023-12-23T12:47:50.781Z,7.8
2023-12-23T12:48:54.784Z,7.8
2023-12-23T12:50:07.218Z,7.7
2023-12-23T12:51:10.031Z,7.7
2023-12-23T12:52:11.588Z,7.7
2023-12-23T12:53:14.069Z,7.7
2023-12-23T12:54:16.678Z,7.7
2023-12-23T12:55:18.520Z,7.7
2023-12-23T12:56:20.357Z,7.7
2023-12-23T12:59:21.853Z,7.8
2023-12-23T13:00:23.739Z,7.8
2023-12-23T13:01:25.601Z,7.8
2023-12-23T13:02:28.229Z,7.8
2023-12-23T13:03:30.910Z,7.8
2023-12-23T13:04:33.052Z,7.8
2023-12-23T13:05:35.545Z,7.8
2023-12-23T13:06:38.455Z,7.8
2023-12-23T13:07:40.383Z,7.8
2023-12-23T13:08:42.055Z,7.8
2023-12-23T13:09:43.613Z,7.8
2023-12-23T13:10:48.486Z,7.8
2023-12-23T13:11:54.571Z,7.8
2023-12-23T13:12:56.526Z,7.8
2023-12-23T13:13:58.394Z,7.8
2023-12-23T13:15:00.612Z,7.8
2023-12-23T13:16:02.566Z,7.8
2023-12-23T13:17:06.076Z,7.8
2023-12-23T13:18:11.489Z,7.8
2023-12-23T13:19:40.396Z,7.8
2023-12-23T13:20:42.815Z,7.8
2023-12-23T13:21:45.513Z,7.8
2023-12-23T13:22:49.548Z,7.8
2023-12-23T13:23:52.268Z,7.8
2023-12-23T13:24:54.071Z,7.8
2023-12-23T13:25:56.236Z,7.8
2023-12-23T13:26:59.469Z,7.8
2023-12-23T13:28:01.081Z,7.8
2023-12-23T13:29:02.841Z,7.8
2023-12-23T13:30:05.368Z,7.8
2023-12-23T13:31:07.809Z,7.7
2023-12-23T13:32:09.594Z,7.7
2023-12-23T13:33:12.089Z,7.7
2023-12-23T13:34:14.489Z,7.7
2023-12-23T13:35:17.135Z,7.7
2023-12-23T13:36:19.873Z,7.7
2023-12-23T13:37:21.746Z,7.7
2023-12-23T13:38:24.187Z,7.7
2023-12-23T13:39:26.725Z,7.7
2023-12-23T13:40:28.640Z,7.7
2023-12-23T13:41:30.711Z,7.7
2023-12-23T13:42:33.436Z,7.7
2023-12-23T13:43:35.178Z,7.7
2023-12-23T13:44:37.309Z,7.7
2023-12-23T13:45:40.110Z,7.7
2023-12-23T13:46:41.873Z,7.7
2023-12-23T13:47:44.217Z,7.7
2023-12-23T13:48:47.044Z,7.8
2023-12-23T13:49:50.006Z,7.8
2023-12-23T13:50:53.013Z,7.8
2023-12-23T13:51:55.081Z,7.8
2023-12-23T13:52:57.878Z,7.8
2023-12-23T13:54:00.435Z,7.8
2023-12-23T13:55:01.979Z,7.8
2023-12-23T13:56:03.689Z,7.8
2023-12-23T13:57:06.293Z,7.8
2023-12-23T13:58:07.872Z,7.8
2023-12-23T13:59:09.864Z,7.8
2023-12-23T14:00:11.836Z,7.8
2023-12-23T14:01:13.874Z,7.8
2023-12-23T14:02:16.300Z,7.8
2023-12-23T14:03:19.011Z,7.8
2023-12-23T14:04:21.069Z,7.8
2023-12-23T14:05:23.019Z,7.8
2023-12-23T14:06:25.673Z,7.8
2023-12-23T14:07:27.726Z,7.8
2023-12-23T14:08:29.812Z,7.8
2023-12-23T14:09:31.850Z,7.8
2023-12-23T14:10:33.566Z,7.8
2023-12-23T14:11:35.412Z,7.8
2023-12-23T14:12:37.496Z,7.8
2023-12-23T14:13:39.320Z,7.8
2023-12-23T14:14:41.158Z,7.8
2023-12-23T14:15:42.886Z,7.8
2023-12-23T14:16:44.801Z,7.8
2023-12-23T14:17:47.480Z,7.8
2023-12-23T14:18:49.935Z,7.8
2023-12-23T14:19:51.887Z,7.8
2023-12-23T14:20:53.837Z,7.8
2023-12-23T14:21:55.563Z,7.8
2023-12-23T14:22:58.547Z,7.8
2023-12-23T14:24:00.272Z,7.8
2023-12-23T14:25:01.974Z,7.8
2023-12-23T14:26:04.426Z,7.8
2023-12-23T14:27:06.868Z,7.8
2023-12-23T14:28:09.612Z,7.8
2023-12-23T14:29:11.362Z,7.8